Time;durP1;ratioP1;P1;durP2;ratioP2;P2;SDS_P1;SDS_P2;PMS_P1;PMS_P2;Temp;Humidity;BMP_temperature;BMP_pressure;BME280_temperature;BME280_humidity;BME280_pressure;Samples;Min_cycle;Max_cycle;Signal;HPM_P1;HPM_P2
2022/01/23 00:01:15;;;;;;;8.52;5.25;;;;;;;;;;5054763;28;20202;-82
2022/01/23 00:03:47;;;;;;;10.05;6.85;;;;;;;;;;5056453;28;20303;-82
2022/01/23 00:06:14;;;;;;;7.25;4.80;;;;;;;;;;5050405;28;20211;-82
2022/01/23 00:08:41;;;;;;;7.32;4.78;;;;;;;;;;5054587;28;20699;-82
2022/01/23 00:11:09;;;;;;;8.65;5.32;;;;;;;;;;5054495;28;20224;-82
2022/01/23 00:17:15;;;;;;;6.43;5.15;;;;;;;;;;5057088;28;20277;-82
2022/01/23 00:19:14;;;;;;;8.40;5.82;;;;;;;;;;5040953;28;20208;-82
2022/01/23 00:21:42;;;;;;;12.63;5.07;;;;;;;;;;5055563;28;20597;-82
2022/01/23 00:32:26;;;;;;;8.35;5.50;;;;;;;;;;5049451;28;20231;-82
2022/01/23 00:34:54;;;;;;;6.60;4.78;;;;;;;;;;5049317;28;20288;-82
2022/01/23 00:37:22;;;;;;;8.75;6.57;;;;;;;;;;5050995;28;20251;-82
2022/01/23 00:39:49;;;;;;;8.50;6.15;;;;;;;;;;5055101;28;20210;-82
2022/01/23 00:42:16;;;;;;;8.90;6.40;;;;;;;;;;5051612;28;20195;-82
2022/01/23 00:44:46;;;;;;;9.90;6.00;;;;;;;;;;5051089;28;20246;-83
2022/01/23 00:47:15;;;;;;;5.75;4.85;;;;;;;;;;5054837;28;20922;-82
2022/01/23 00:49:42;;;;;;;9.38;6.47;;;;;;;;;;5053862;28;20251;-82
2022/01/23 00:52:11;;;;;;;7.03;5.00;;;;;;;;;;5056063;28;20247;-82
2022/01/23 00:54:38;;;;;;;6.70;5.40;;;;;;;;;;5048589;28;20204;-82
2022/01/23 00:57:05;;;;;;;9.43;6.03;;;;;;;;;;5053974;28;20312;-82
2022/01/23 00:59:33;;;;;;;7.78;6.57;;;;;;;;;;5056103;28;20256;-82
2022/01/23 01:02:00;;;;;;;8.80;5.72;;;;;;;;;;5053211;28;20260;-82
2022/01/23 01:04:28;;;;;;;16.30;6.15;;;;;;;;;;5051581;28;20230;-82
2022/01/23 01:06:56;;;;;;;8.55;5.60;;;;;;;;;;5054022;28;20200;-82
2022/01/23 01:09:25;;;;;;;6.78;5.43;;;;;;;;;;5055924;28;20203;-82
2022/01/23 01:12:00;;;;;;;8.50;5.57;;;;;;;;;;5058044;28;20247;-83
2022/01/23 01:14:40;;;;;;;9.95;6.50;;;;;;;;;;5056401;28;20753;-82
2022/01/23 01:17:15;;;;;;;12.40;7.03;;;;;;;;;;5050428;28;20657;-82
2022/01/23 01:31:05;;;;;;;7.03;5.68;;;;;;;;;;5054985;28;20212;-83
2022/01/23 01:33:43;;;;;;;8.35;6.10;;;;;;;;;;5048108;28;20274;-82
2022/01/23 01:36:22;;;;;;;10.00;5.95;;;;;;;;;;5055631;28;20215;-82
2022/01/23 01:38:50;;;;;;;7.07;5.60;;;;;;;;;;5056642;28;21156;-82
2022/01/23 01:41:20;;;;;;;11.57;6.22;;;3.10;99.90;;;;;;5050263;28;20539;-82
2022/01/23 01:43:47;;;;;;;6.93;4.95;;;;;;;;;;5053375;28;20192;-82
2022/01/23 01:46:14;;;;;;;8.07;5.63;;;;;;;;;;5054828;28;20219;-82
2022/01/23 01:48:41;;;;;;;8.43;5.65;;;;;;;;;;5056299;28;20258;-82
2022/01/23 01:51:13;;;;;;;6.13;5.35;;;;;;;;;;5056485;28;20242;-83
2022/01/23 01:53:42;;;;;;;10.07;5.55;;;;;;;;;;5056710;28;20587;-82
2022/01/23 01:56:09;;;;;;;7.60;6.00;;;;;;;;;;5053615;28;20204;-82
2022/01/23 01:59:13;;;;;;;8.60;5.75;;;;;;;;;;5056186;28;20200;-82
2022/01/23 02:09:57;;;;;;;7.45;4.80;;;;;;;;;;5052399;28;20208;-82
2022/01/23 02:12:57;;;;;;;7.85;4.97;;;;;;;;;;5056084;28;20231;-82
2022/01/23 02:15:43;;;;;;;7.85;5.50;;;;;;;;;;5053400;28;20210;-82
2022/01/23 02:18:28;;;;;;;8.05;5.25;;;;;;;;;;5052429;28;20578;-82
2022/01/23 02:24:04;;;;;;;10.77;6.80;;;;;;;;;;5059329;28;20227;-82
2022/01/23 02:51:36;;;;;;;8.82;6.00;;;;;;;;;;5050073;28;20203;-82
2022/01/23 02:54:24;;;;;;;8.32;5.43;;;;;;;;;;5051907;28;20309;-82
2022/01/23 02:56:55;;;;;;;6.63;5.18;;;;;;;;;;5053449;28;20195;-82
2022/01/23 02:59:25;;;;;;;9.15;5.85;;;;;;;;;;5048945;28;20305;-82
2022/01/23 03:02:09;;;;;;;7.65;5.10;;;;;;;;;;5046266;28;20225;-82
2022/01/23 03:04:40;;;;;;;9.13;5.07;;;;;;;;;;5052582;28;20214;-82
2022/01/23 03:07:20;;;;;;;10.43;4.90;;;;;;;;;;5055980;28;20203;-83
2022/01/23 03:10:00;;;;;;;8.60;6.88;;;;;;;;;;5050199;28;20238;-83
2022/01/23 03:15:43;;;;;;;10.48;6.32;;;;;;;;;;5053261;28;20218;-83
2022/01/23 03:24:21;;;;;;;8.65;5.97;;;;;;;;;;4988643;28;20303;-82
2022/01/23 03:26:58;;;;;;;10.30;6.15;;;;;;;;;;5048733;28;20294;-82
2022/01/23 03:29:27;;;;;;;7.93;5.93;;;;;;;;;;5055070;28;20206;-82
2022/01/23 03:32:18;;;;;;;9.65;6.10;;;;;;;;;;5047731;28;20204;-82
2022/01/23 03:34:45;;;;;;;9.00;5.65;;;;;;;;;;5051951;28;20241;-82
2022/01/23 03:37:13;;;;;;;13.65;6.30;;;;;;;;;;5054538;28;20231;-82
2022/01/23 03:39:40;;;;;;;8.55;5.75;;;;;;;;;;5048744;28;20289;-82
2022/01/23 03:42:09;;;;;;;9.65;7.05;;;;;;;;;;5055801;28;20595;-82
2022/01/23 03:44:40;;;;;;;10.05;7.00;;;;;;;;;;5051263;28;20284;-82
2022/01/23 03:47:20;;;;;;;7.53;5.47;;;;;;;;;;5058642;28;20239;-83
2022/01/23 03:49:48;;;;;;;7.90;5.65;;;;;;;;;;5048854;28;20882;-82
2022/01/23 03:52:16;;;;;;;6.82;5.88;;;;;;;;;;5056226;28;20238;-82
2022/01/23 03:54:43;;;;;;;7.80;5.85;;;;;;;;;;5056199;28;20208;-82
2022/01/23 03:57:12;;;;;;;12.60;6.72;;;;;;;;;;5058492;28;20208;-83
2022/01/23 03:59:39;;;;;;;10.05;6.15;;;;;;;;;;5049186;28;20220;-82
2022/01/23 04:02:07;;;;;;;7.72;5.95;;;;;;;;;;5054443;28;20626;-83
2022/01/23 04:04:39;;;;;;;8.45;6.57;;;;;;;;;;5051851;28;20639;-82
2022/01/23 04:07:07;;;;;;;8.85;6.15;;;;;;;;;;5054228;28;20215;-83
2022/01/23 04:09:35;;;;;;;9.63;5.80;;;;;;;;;;5055688;28;20346;-82
2022/01/23 04:12:04;;;;;;;8.15;5.57;;;;;;;;;;5055851;28;20279;-82
2022/01/23 04:14:35;;;;;;;8.90;7.32;;;;;;;;;;5059445;28;20232;-83
2022/01/23 04:17:43;;;;;;;11.07;7.90;;;;;;;;;;5056397;28;20841;-82
2022/01/23 04:20:27;;;;;;;7.72;5.85;;;;;;;;;;5054694;28;20311;-82
2022/01/23 04:33:59;;;;;;;10.35;6.55;;;;;;;;;;5058020;28;20310;-83
2022/01/23 05:01:22;;;;;;;11.50;7.45;;;;;;;;;;5055559;28;20207;-82
2022/01/23 05:04:07;;;;;;;10.18;6.10;;;;;;;;;;5060127;28;20207;-82
2022/01/23 05:06:42;;;;;;;8.50;5.70;;;;;;;;;;5053586;28;20688;-83
2022/01/23 05:09:09;;;;;;;11.45;6.80;;;;;;;;;;5053761;28;20207;-82
2022/01/23 05:11:37;;;;;;;11.13;7.00;;;;;;;;;;5052056;28;20229;-83
2022/01/23 05:14:04;;;;;;;9.02;7.03;;;;;;;;;;5053153;28;20237;-82
2022/01/23 05:16:32;;;;;;;10.68;8.30;;;;;;;;;;5056385;28;20199;-82
2022/01/23 05:19:02;;;;;;;10.77;8.02;;;;;;;;;;5056623;28;20204;-82
2022/01/23 05:21:58;;;;;;;10.70;6.40;;;;;;;;;;5054049;28;20220;-82
2022/01/23 05:24:31;;;;;;;9.90;6.75;;;;;;;;;;5052343;28;20212;-82
2022/01/23 05:26:59;;;;;;;12.68;7.70;;;;;;;;;;5051905;28;20207;-82
2022/01/23 05:29:26;;;;;;;10.27;6.35;;;;;;;;;;5054997;28;20274;-82
2022/01/23 05:31:54;;;;;;;12.45;6.35;;;;;;;;;;5047025;28;20200;-82
2022/01/23 05:34:23;;;;;;;10.20;6.70;;;;;;;;;;5057736;28;20974;-82
2022/01/23 05:36:50;;;;;;;12.18;7.38;;;;;;;;;;5053122;28;20200;-82
2022/01/23 05:39:20;;;;;;;11.50;7.05;;;;;;;;;;5055130;28;20200;-82
2022/01/23 05:41:47;;;;;;;11.45;6.72;;;;;;;;;;5053200;28;20213;-82
2022/01/23 05:44:14;;;;;;;11.15;7.18;;;;;;;;;;5054862;28;20277;-83
2022/01/23 05:46:41;;;;;;;16.33;8.27;;;;;;;;;;5052313;28;20236;-82
2022/01/23 05:49:08;;;;;;;12.05;7.85;;;;;;;;;;5059750;28;20286;-82
2022/01/23 05:51:37;;;;;;;11.82;7.78;;;;;;;;;;5054292;28;20203;-82
2022/01/23 05:54:04;;;;;;;11.80;7.25;;;;;;;;;;5056140;28;20277;-82
2022/01/23 05:56:31;;;;;;;17.05;8.02;;;;;;;;;;5049994;28;20210;-82
2022/01/23 05:58:59;;;;;;;11.27;7.43;;;;;;;;;;5053563;28;20199;-82
2022/01/23 06:01:26;;;;;;;12.40;7.53;;;;;;;;;;5049220;28;20563;-82
2022/01/23 06:03:53;;;;;;;14.50;9.52;;;;;;;;;;5050521;28;20201;-83
2022/01/23 06:06:20;;;;;;;11.25;7.30;;;;;;;;;;5050341;28;20275;-82
2022/01/23 06:08:49;;;;;;;11.88;7.55;;;;;;;;;;5039244;28;20311;-82
2022/01/23 06:11:16;;;;;;;9.95;6.82;;;;;;;;;;5046285;28;20271;-82
2022/01/23 06:13:43;;;;;;;9.52;7.22;;;;;;;;;;5048020;28;20219;-82
2022/01/23 06:16:10;;;;;;;12.60;8.68;;;;;;;;;;5047965;28;20207;-82
2022/01/23 06:18:40;;;;;;;14.05;8.60;;;;;;;;;;5050319;28;20280;-82
2022/01/23 06:21:08;;;;;;;12.07;8.45;;;;;;;;;;5046257;28;20245;-82
2022/01/23 06:23:35;;;;;;;12.60;8.57;;;;;;;;;;5051378;28;20273;-82
2022/01/23 06:26:04;;;;;;;14.02;8.30;;;;;;;;;;5048487;28;20227;-82
2022/01/23 06:28:35;;;;;;;10.35;7.63;;;;;;;;;;5051729;28;20234;-82
2022/01/23 06:31:02;;;;;;;15.10;8.15;;;;;;;;;;5049777;28;20286;-82
2022/01/23 06:33:30;;;;;;;19.50;9.07;;;;;;;;;;5052062;28;20262;-83
2022/01/23 06:35:57;;;;;;;13.43;8.80;;;;;;;;;;5054557;28;20214;-82
2022/01/23 06:38:24;;;;;;;11.40;9.07;;;;;;;;;;5055601;28;20204;-82
2022/01/23 06:40:52;;;;;;;13.43;7.65;;;;;;;;;;5051465;28;20282;-82
2022/01/23 06:43:20;;;;;;;13.50;8.75;;;;;;;;;;5048711;28;20227;-82
2022/01/23 06:45:47;;;;;;;15.48;8.90;;;;;;;;;;5047076;28;20281;-82
2022/01/23 06:48:14;;;;;;;15.55;10.07;;;;;;;;;;5052524;28;20717;-83
2022/01/23 06:50:42;;;;;;;14.32;8.98;;;;;;;;;;5046989;28;20188;-82
2022/01/23 06:53:09;;;;;;;14.80;9.65;;;;;;;;;;5056396;28;20256;-83
2022/01/23 06:55:36;;;;;;;15.82;9.73;;;;;;;;;;5050348;28;20296;-84
2022/01/23 06:58:03;;;;;;;13.23;9.75;;;;;;;;;;5055063;28;20264;-84
2022/01/23 07:00:33;;;;;;;15.95;9.90;;;;;;;;;;5047080;28;20195;-83
2022/01/23 07:03:00;;;;;;;15.85;9.98;;;;;;;;;;5049060;28;20218;-84
2022/01/23 07:05:27;;;;;;;20.58;10.63;;;;;;;;;;5047757;28;20211;-84
2022/01/23 07:07:54;;;;;;;16.25;11.23;;;;;;;;;;5054604;28;20229;-84
2022/01/23 07:10:25;;;;;;;17.38;10.30;;;;;;;;;;5051746;28;20237;-84
2022/01/23 07:12:52;;;;;;;14.05;10.32;;;;;;;;;;5052536;28;20310;-84
2022/01/23 07:15:19;;;;;;;13.95;9.35;;;;;;;;;;5051455;28;20239;-83
2022/01/23 07:17:48;;;;;;;18.98;10.45;;;;;;;;;;5052485;28;20238;-84
2022/01/23 07:20:15;;;;;;;12.45;9.32;;;;;;;;;;5047995;28;20259;-84
2022/01/23 07:22:42;;;;;;;15.18;10.38;;;;;;;;;;5055224;28;20235;-84
2022/01/23 07:25:10;;;;;;;15.68;10.88;;;;;;;;;;5053586;28;20240;-84
2022/01/23 07:27:46;;;;;;;15.88;10.73;;;;;;;;;;5063347;28;20257;-84
2022/01/23 07:30:25;;;;;;;15.80;9.18;;;;;;;;;;5054642;28;20303;-84
2022/01/23 07:32:53;;;;;;;15.32;9.38;;;;;;;;;;5055229;28;20205;-84
2022/01/23 07:35:21;;;;;;;14.63;9.52;;;;;;;;;;5051715;28;20320;-84
2022/01/23 07:37:48;;;;;;;19.80;12.32;;;;;;;;;;5057465;28;20287;-84
2022/01/23 07:40:15;;;;;;;15.25;9.32;;;;;;;;;;5048607;28;20196;-84
2022/01/23 07:42:42;;;;;;;16.25;9.75;;;;;;;;;;5054735;28;20291;-84
2022/01/23 07:45:10;;;;;;;13.23;10.15;;;;;;;;;;5055453;28;20200;-84
2022/01/23 07:47:37;;;;;;;12.77;9.10;;;;;;;;;;5059044;28;20302;-84
2022/01/23 07:50:08;;;;;;;16.15;9.40;;;;;;;;;;5056660;28;20261;-84
2022/01/23 07:52:35;;;;;;;13.07;8.85;;;;;;;;;;5053936;28;20208;-84
2022/01/23 07:55:03;;;;;;;13.88;8.82;;;;;;;;;;5055204;28;20251;-83
2022/01/23 07:57:30;;;;;;;13.52;9.30;;;;;;;;;;5052188;28;20875;-84
2022/01/23 07:59:57;;;;;;;17.13;10.50;;;;;;;;;;5052028;28;20299;-84
2022/01/23 08:02:24;;;;;;;18.50;10.05;;;;;;;;;;5058758;28;20298;-84
2022/01/23 08:04:52;;;;;;;19.33;10.30;;;;;;;;;;5051804;28;20265;-83
2022/01/23 08:07:31;;;;;;;14.50;9.20;;;;;;;;;;5047899;28;20231;-84
2022/01/23 08:09:58;;;;;;;15.40;11.05;;;;;;;;;;5052888;28;20211;-84
2022/01/23 08:12:25;;;;;;;14.50;9.90;;;;;;;;;;5051945;28;20262;-84
2022/01/23 08:14:53;;;;;;;14.63;9.70;;;;;;;;;;5042728;28;20250;-84
2022/01/23 08:17:24;;;;;;;17.92;11.70;;;;;;;;;;5056116;28;20327;-84
2022/01/23 08:19:51;;;;;;;14.35;10.57;;;;;;;;;;5055204;28;20235;-84
2022/01/23 08:22:18;;;;;;;19.30;11.63;;;;;;;;;;5053963;28;20219;-84
2022/01/23 08:24:47;;;;;;;15.05;11.45;;;;;;;;;;5046673;28;20204;-84
2022/01/23 08:27:14;;;;;;;24.33;12.45;;;;;;;;;;5054678;28;20293;-84
2022/01/23 08:29:41;;;;;;;19.60;11.23;;;;;;;;;;5054815;28;20412;-84
2022/01/23 08:32:09;;;;;;;15.27;10.13;;;;;;;;;;5048896;28;20231;-83
2022/01/23 08:34:36;;;;;;;17.77;10.70;;;;;;;;;;5051136;28;20776;-84
2022/01/23 08:37:03;;;;;;;17.83;11.95;;;;;;;;;;5053648;28;20305;-84
2022/01/23 08:39:34;;;;;;;15.63;11.00;;;;;;;;;;5054729;28;20735;-84
2022/01/23 08:42:03;;;;;;;18.65;11.27;;;;;;;;;;5053297;28;20605;-84
2022/01/23 08:44:30;;;;;;;17.95;12.05;;;;;;;;;;5052318;28;20290;-84
2022/01/23 08:46:57;;;;;;;20.23;11.75;;;;;;;;;;5051740;28;20211;-85
2022/01/23 08:49:25;;;;;;;21.65;10.77;;;;;;;;;;5057201;28;20269;-84
2022/01/23 08:51:53;;;;;;;18.95;11.70;;;;;;;;;;5052936;28;20294;-84
2022/01/23 08:54:20;;;;;;;14.18;10.35;;;;;;;;;;5051313;28;20231;-84
2022/01/23 08:56:48;;;;;;;18.63;12.85;;;;;;;;;;5055680;28;20211;-83
2022/01/23 08:59:16;;;;;;;15.38;12.05;;;;;;;;;;5055141;28;20230;-84
2022/01/23 09:01:43;;;;;;;15.98;11.95;;;;;;;;;;5052640;28;20290;-84
2022/01/23 09:04:15;;;;;;;16.05;11.40;;;;;;;;;;5052274;28;20188;-84
2022/01/23 09:06:42;;;;;;;18.85;12.20;;;;;;;;;;5051694;28;20213;-84
2022/01/23 09:09:15;;;;;;;16.52;11.82;;;;;;;;;;5059308;28;20314;-83
2022/01/23 09:11:54;;;;;;;22.50;12.43;;;;;;;;;;5052967;28;20211;-83
2022/01/23 09:14:23;;;;;;;19.80;13.27;;;;;;;;;;5055708;28;20633;-84
2022/01/23 09:16:51;;;;;;;18.88;11.95;;;;;;;;;;5046801;28;20234;-84
2022/01/23 09:19:18;;;;;;;20.85;13.57;;;;;;;;;;5056266;28;20301;-84
2022/01/23 09:21:46;;;;;;;18.33;13.55;;;;;;;;;;5052792;28;20685;-84
2022/01/23 09:24:13;;;;;;;21.52;14.52;;;;;;;;;;5047215;28;20242;-84
2022/01/23 09:26:40;;;;;;;20.58;13.30;;;;;;;;;;5049310;28;20740;-83
2022/01/23 09:29:13;;;;;;;20.60;12.93;;;;;;;;;;5055938;28;20204;-84
2022/01/23 09:31:52;;;;;;;19.95;12.38;;;;;;;;;;5047674;28;20203;-84
2022/01/23 09:34:20;;;;;;;20.65;12.20;;;4.40;99.90;;;;;;5052397;28;20554;-84
2022/01/23 09:36:47;;;;;;;21.40;12.40;;;;;;;;;;5054146;28;20262;-84
2022/01/23 09:39:15;;;;;;;17.55;12.00;;;;;;;;;;5057934;28;20204;-84
2022/01/23 09:41:47;;;;;;;21.77;12.50;;;4.50;99.90;;;;;;5051835;28;20214;-84
2022/01/23 09:44:16;;;;;;;29.38;12.68;;;4.60;99.90;;;;;;5045722;28;20204;-84
2022/01/23 09:46:46;;;;;;;23.33;13.38;;;4.60;99.90;;;;;;5050640;28;20219;-84
2022/01/23 09:49:15;;;;;;;19.10;12.88;;;;;;;;;;5059097;28;20239;-84
2022/01/23 09:51:44;;;;;;;21.58;12.25;;;4.70;99.90;;;;;;5051305;28;20608;-84
2022/01/23 09:54:11;;;;;;;15.73;11.50;;;;;;;;;;5053028;28;20250;-84
2022/01/23 09:56:40;;;;;;;17.17;11.20;;;;;;;;;;5052566;28;20196;-84
2022/01/23 09:59:10;;;;;;;18.50;11.43;;;;;;;;;;5058216;28;20212;-84
2022/01/23 10:01:39;;;;;;;15.27;10.57;;;4.70;99.90;;;;;;5052043;28;20269;-84
2022/01/23 10:04:07;;;;;;;20.40;12.50;;;;;;;;;;5055037;28;20851;-84
2022/01/23 10:06:34;;;;;;;15.82;10.18;;;;;;;;;;5056613;28;20192;-84
2022/01/23 10:09:02;;;;;;;17.20;10.05;;;4.80;99.90;;;;;;5057618;28;20265;-84
2022/01/23 10:11:35;;;;;;;12.85;9.45;;;;;;;;;;5054585;28;20199;-84
2022/01/23 10:14:03;;;;;;;16.15;10.13;;;;;;;;;;5052632;28;20474;-84
2022/01/23 10:16:30;;;;;;;17.63;11.02;;;;;;;;;;5054218;28;20227;-84
2022/01/23 10:18:57;;;;;;;15.05;10.43;;;;;;;;;;5055620;28;20435;-84
2022/01/23 10:21:26;;;;;;;11.65;8.90;;;;;;;;;;5052175;28;20253;-84
2022/01/23 10:23:54;;;;;;;13.95;10.55;;;;;;;;;;5055466;28;20738;-85
2022/01/23 10:26:45;;;;;;;14.52;9.88;;;;;;;;;;5051406;28;20670;-84
2022/01/23 10:29:17;;;;;;;15.70;9.82;;;;;;;;;;5051671;28;20286;-84
2022/01/23 10:32:04;;;;;;;12.48;9.40;;;;;;;;;;5052011;28;20200;-85
2022/01/23 10:34:43;;;;;;;16.27;10.00;;;;;;;;;;5049705;28;20231;-84
2022/01/23 10:37:13;;;;;;;21.10;10.93;;;4.90;99.90;;;;;;5052790;28;20207;-84
2022/01/23 10:39:41;;;;;;;12.38;9.02;;;;;;;;;;5051437;28;20203;-84
2022/01/23 10:42:37;;;;;;;15.25;10.18;;;5.10;99.90;;;;;;5055717;28;20199;-84
2022/01/23 10:47:55;;;;;;;16.92;10.55;;;5.20;99.90;;;;;;5052917;28;20219;-84
2022/01/23 10:50:24;;;;;;;16.13;11.18;;;5.20;99.90;;;;;;5047616;28;20206;-84
2022/01/23 10:52:53;;;;;;;29.50;12.02;;;;;;;;;;5055670;28;20295;-84
2022/01/23 10:55:25;;;;;;;13.23;9.98;;;;;;;;;;5052586;28;20252;-84
2022/01/23 10:57:55;;;;;;;15.50;10.57;;;5.30;99.90;;;;;;5054236;28;20225;-84
2022/01/23 11:00:25;;;;;;;13.75;8.70;;;5.30;99.90;;;;;;5050298;28;20258;-84
2022/01/23 11:02:52;;;;;;;18.55;13.18;;;;;;;;;;5059875;28;20203;-84
2022/01/23 11:05:21;;;;;;;19.75;12.93;;;;;;;;;;5046336;28;20215;-84
2022/01/23 11:07:49;;;;;;;23.23;14.25;;;5.10;99.90;;;;;;5054409;28;20299;-83
2022/01/23 11:10:19;;;;;;;26.88;17.48;;;5.00;99.90;;;;;;5054018;28;20204;-84
2022/01/23 11:18:38;;;;;;;16.15;10.57;;;5.10;99.90;;;;;;5056977;28;20208;-84
2022/01/23 11:21:20;;;;;;;13.20;10.82;;;;;;;;;;5058864;28;20200;-84
2022/01/23 11:23:55;;;;;;;16.52;11.98;;;5.10;99.90;;;;;;5052864;28;20216;-84
2022/01/23 11:26:26;;;;;;;21.65;15.32;;;;;;;;;;5052920;28;20227;-84
2022/01/23 11:28:55;;;;;;;13.43;9.05;;;;;;;;;;5058532;28;20231;-84
2022/01/23 11:31:23;;;;;;;10.32;8.98;;;;;;;;;;5054277;28;20693;-84
2022/01/23 11:33:52;;;;;;;26.08;20.35;;;5.30;99.90;;;;;;5048666;28;20203;-84
2022/01/23 11:36:21;;;;;;;16.65;12.88;;;;;;;;;;5052413;28;20240;-84
2022/01/23 11:38:50;;;;;;;34.45;26.75;;;;;;;;;;5050069;28;20208;-84
2022/01/23 11:55:07;;;;;;;17.90;11.93;;;;;;;;;;5008737;28;20849;-84
2022/01/23 11:57:40;;;;;;;19.98;11.95;;;;;;;;;;5057566;28;20727;-84
2022/01/23 12:00:11;;;;;;;15.30;10.80;;;;;;;;;;5058220;28;20195;-84
2022/01/23 12:02:40;;;;;;;13.68;10.00;;;;;;;;;;5059391;28;20212;-84
2022/01/23 12:05:31;;;;;;;22.80;14.18;;;;;;;;;;5058782;28;20211;-84
2022/01/23 12:08:29;;;;;;;15.25;11.00;;;;;;;;;;5054148;28;20548;-84
2022/01/23 12:11:39;;;;;;;13.80;9.73;;;5.40;99.90;;;;;;5053974;28;20208;-84
2022/01/23 12:17:16;;;;;;;15.50;10.45;;;5.30;99.90;;;;;;5060844;28;20599;-84
2022/01/23 12:19:49;;;;;;;13.60;11.10;;;5.40;99.90;;;;;;5054821;28;20211;-84
2022/01/23 12:22:32;;;;;;;13.77;9.45;;;5.30;99.90;;;;;;5057877;28;20280;-84
2022/01/23 12:25:06;;;;;;;15.20;10.02;;;;;;;;;;5057387;28;20265;-84
2022/01/23 12:27:33;;;;;;;23.63;11.30;;;;;;;;;;5053356;28;20592;-84
2022/01/23 12:30:13;;;;;;;13.63;8.73;;;5.50;99.90;;;;;;5053777;28;20196;-84
2022/01/23 12:32:42;;;;;;;14.70;9.60;;;;;;;;;;5052745;28;20371;-84
2022/01/23 12:35:11;;;;;;;28.77;18.10;;;5.50;99.90;;;;;;5053242;28;20758;-84
2022/01/23 12:38:06;;;;;;;16.40;9.90;;;5.50;99.90;;;;;;5056485;28;20207;-84
2022/01/23 12:40:34;;;;;;;9.43;8.07;;;6.20;99.90;;;;;;5044989;28;20246;-84
2022/01/23 12:43:06;;;;;;;16.17;10.02;;;;;;;;;;5049814;28;20213;-84
2022/01/23 12:45:52;;;;;;;16.05;11.60;;;5.50;99.90;;;;;;5051839;28;20846;-84
2022/01/23 12:48:45;;;;;;;18.23;14.30;;;5.50;99.90;;;;;;5057031;28;20199;-84
2022/01/23 12:51:38;;;;;;;11.77;8.32;;;5.50;99.90;;;;;;5054680;28;20210;-85
2022/01/23 12:54:29;;;;;;;13.48;8.52;;;;;;;;;;5051009;28;20196;-84
2022/01/23 12:56:57;;;;;;;11.63;8.27;;;;;;;;;;5046483;28;20340;-85
2022/01/23 12:59:32;;;;;;;16.55;11.65;;;5.40;99.90;;;;;;5055754;28;20219;-85
2022/01/23 13:02:03;;;;;;;11.80;8.55;;;5.50;99.90;;;;;;5040293;28;20290;-84
2022/01/23 13:04:33;;;;;;;17.77;10.45;;;;;;;;;;5055813;28;20491;-84
2022/01/23 13:07:09;;;;;;;11.93;7.72;;;5.40;99.90;;;;;;5048870;28;20204;-85
2022/01/23 13:09:42;;;;;;;11.98;8.02;;;;;;;;;;5050366;28;20195;-85
2022/01/23 13:12:15;;;;;;;13.18;9.00;;;5.40;99.90;;;;;;5054332;28;20203;-84
2022/01/23 13:14:51;;;;;;;14.68;8.95;;;5.40;99.90;;;;;;5050535;28;20195;-84
2022/01/23 13:17:45;;;;;;;12.02;8.80;;;5.40;99.90;;;;;;5049639;28;20963;-84
2022/01/23 13:31:38;;;;;;;8.52;5.53;;;;;;;;;;5012307;28;20220;-85
2022/01/23 13:34:05;;;;;;;7.95;4.47;;;;;;;;;;5052869;28;20199;-84
2022/01/23 13:36:33;;;;;;;9.80;5.20;;;;;;;;;;5049520;28;20263;-84
2022/01/23 13:39:06;;;;;;;8.15;4.40;;;;;;;;;;5050863;28;20282;-84
2022/01/23 13:41:45;;;;;;;4.40;3.97;;;;;;;;;;5056348;28;20208;-84
2022/01/23 13:52:42;;;;;;;4.03;3.55;;;;;;;;;;5051931;28;20207;-84
2022/01/23 14:00:42;;;;;;;11.57;4.20;;;;;;;;;;5025786;28;20231;-85
2022/01/23 14:03:10;;;;;;;6.93;4.65;;;;;;;;;;5052356;28;20207;-84
2022/01/23 14:05:38;;;;;;;5.05;3.55;;;;;;;;;;5050642;28;20223;-84
2022/01/23 14:08:06;;;;;;;7.00;3.15;;;;;;;;;;5046760;28;20287;-84
2022/01/23 14:10:35;;;;;;;5.55;3.90;;;;;;;;;;5055652;28;20239;-85
2022/01/23 14:13:10;;;;;;;9.57;6.35;;;;;;;;;;5049545;28;20227;-85
2022/01/23 14:15:43;;;;;;;5.38;4.30;;;;;;;;;;5051752;28;20727;-84
2022/01/23 14:18:13;;;;;;;6.40;4.38;;;5.10;99.90;;;;;;5047308;28;20302;-85
2022/01/23 14:20:42;;;;;;;9.38;5.93;;;5.10;99.90;;;;;;5055340;28;20672;-84
2022/01/23 14:23:16;;;;;;;10.63;6.25;;;5.10;99.90;;;;;;5051284;28;20216;-85
2022/01/23 14:25:47;;;;;;;7.65;4.43;;;;;;;;;;5051210;28;20614;-85
2022/01/23 14:28:15;;;;;;;4.07;3.60;;;;;;;;;;5053432;28;20208;-85
2022/01/23 14:30:44;;;;;;;4.60;3.83;;;5.10;99.90;;;;;;5050304;28;20566;-84
2022/01/23 14:33:15;;;;;;;5.70;4.22;;;;;;;;;;5055279;28;20290;-85
2022/01/23 14:35:43;;;;;;;3.78;3.20;;;;;;;;;;5047852;28;20638;-84
2022/01/23 14:38:11;;;;;;;3.95;3.20;;;;;;;;;;5057507;28;20265;-85
2022/01/23 14:40:40;;;;;;;3.30;2.45;;;;;;;;;;5048327;28;20627;-84
2022/01/23 14:43:09;;;;;;;3.70;3.28;;;;;;;;;;5058133;28;20661;-85
2022/01/23 14:45:39;;;;;;;4.38;3.58;;;;;;;;;;5049109;28;20292;-85
2022/01/23 14:48:06;;;;;;;6.07;3.92;;;;;;;;;;5053044;28;20250;-85
2022/01/23 14:50:39;;;;;;;6.55;4.00;;;;;;;;;;5051963;28;20208;-84
2022/01/23 14:53:07;;;;;;;5.65;4.28;;;;;;;;;;5049129;28;20665;-85
2022/01/23 14:55:35;;;;;;;5.72;4.15;;;;;;;;;;5037381;28;20224;-85
2022/01/23 14:58:04;;;;;;;6.43;3.85;;;;;;;;;;5052878;28;20199;-85
2022/01/23 15:00:32;;;;;;;4.15;3.75;;;;;;;;;;5045825;28;20207;-85
2022/01/23 15:03:01;;;;;;;4.80;3.35;;;;;;;;;;5056011;28;20256;-85
2022/01/23 15:05:30;;;;;;;4.88;3.50;;;;;;;;;;5052087;28;20305;-85
2022/01/23 15:07:58;;;;;;;6.13;3.80;;;;;;;;;;5056116;28;20246;-85
2022/01/23 15:10:26;;;;;;;3.60;3.28;;;;;;;;;;5050448;28;20212;-85
2022/01/23 15:12:53;;;;;;;7.55;5.50;;;;;;;;;;5055730;28;20280;-86
2022/01/23 15:15:21;;;;;;;4.78;4.20;;;;;;;;;;5050778;28;20232;-85
2022/01/23 15:17:49;;;;;;;5.97;3.90;;;;;;;;;;5054893;28;20203;-84
2022/01/23 15:20:16;;;;;;;5.50;2.80;;;;;;;;;;5056300;28;20354;-84
2022/01/23 15:22:43;;;;;;;6.13;3.63;;;;;;;;;;5053359;28;20270;-85
2022/01/23 15:25:12;;;;;;;3.85;3.08;;;;;;;;;;5042936;28;20301;-85
2022/01/23 15:27:39;;;;;;;4.60;3.55;;;;;;;;;;5048321;28;20218;-85
2022/01/23 15:30:09;;;;;;;4.10;3.45;;;4.80;99.90;;;;;;5053491;28;20200;-84
2022/01/23 15:32:37;;;;;;;3.40;2.85;;;;;;;;;;5055258;28;20261;-85
2022/01/23 15:35:05;;;;;;;3.30;2.95;;;;;;;;;;5050870;28;20235;-85
2022/01/23 15:37:32;;;;;;;5.43;3.53;;;;;;;;;;5053939;28;20227;-84
2022/01/23 15:40:00;;;;;;;6.10;4.30;;;4.70;99.90;;;;;;5055082;28;20277;-85
2022/01/23 15:42:27;;;;;;;4.60;3.50;;;;;;;;;;5046910;28;20601;-85
2022/01/23 15:44:54;;;;;;;3.95;2.97;;;;;;;;;;5046537;28;20220;-85
2022/01/23 15:47:21;;;;;;;3.35;2.80;;;;;;;;;;5059158;28;20203;-85
2022/01/23 15:49:50;;;;;;;3.35;3.05;;;;;;;;;;5049576;28;20658;-85
2022/01/23 15:52:17;;;;;;;4.70;3.45;;;;;;;;;;5059888;28;20208;-85
2022/01/23 15:54:45;;;;;;;4.07;3.58;;;;;;;;;;5054976;28;20674;-85
2022/01/23 15:57:13;;;;;;;8.23;3.47;;;;;;;;;;5058973;28;20263;-85
2022/01/23 15:59:40;;;;;;;5.53;4.03;;;;;;;;;;5051378;28;20204;-85
2022/01/23 16:02:08;;;;;;;3.55;3.22;;;;;;;;;;5055433;28;20239;-85
2022/01/23 16:04:37;;;;;;;4.88;3.08;;;;;;;;;;5055311;28;20202;-85
2022/01/23 16:07:06;;;;;;;4.80;3.28;;;;;;;;;;5050986;28;20215;-85
2022/01/23 16:09:34;;;;;;;4.22;3.75;;;;;;;;;;5052732;28;20278;-85
2022/01/23 16:12:01;;;;;;;4.25;3.00;;;;;;;;;;5052417;28;20207;-85
2022/01/23 16:14:29;;;;;;;5.25;3.75;;;;;;;;;;5051335;28;20204;-85
2022/01/23 16:16:56;;;;;;;4.43;3.83;;;;;;;;;;5059876;28;20482;-85
2022/01/23 16:19:23;;;;;;;5.05;2.80;;;;;;;;;;5049165;28;20195;-85
2022/01/23 16:21:54;;;;;;;6.38;2.88;;;;;;;;;;5055000;28;20292;-84
2022/01/23 16:24:23;;;;;;;7.25;4.10;;;;;;;;;;5053729;28;20203;-85
2022/01/23 16:26:50;;;;;;;4.28;3.83;;;;;;;;;;5055778;28;20251;-85
2022/01/23 16:29:17;;;;;;;4.65;3.25;;;;;;;;;;5058283;28;20593;-85
2022/01/23 16:31:44;;;;;;;3.78;3.13;;;;;;;;;;5049332;28;20296;-85
2022/01/23 16:34:12;;;;;;;4.78;3.75;;;;;;;;;;5054680;28;20223;-85
2022/01/23 16:36:39;;;;;;;6.25;4.05;;;;;;;;;;5042595;28;20220;-85
2022/01/23 16:39:09;;;;;;;5.85;3.42;;;;;;;;;;5046569;28;20251;-85
2022/01/23 16:41:38;;;;;;;4.47;3.83;;;;;;;;;;5047702;28;20206;-85
2022/01/23 16:44:05;;;;;;;5.85;3.00;;;4.40;99.90;;;;;;5053587;28;20618;-85
2022/01/23 16:46:35;;;;;;;6.47;4.20;;;;;;;;;;5053472;28;20211;-85
2022/01/23 16:49:02;;;;;;;6.18;4.15;;;;;;;;;;5054486;28;20238;-85
2022/01/23 16:51:30;;;;;;;4.60;3.10;;;;;;;;;;5048014;28;20674;-85
2022/01/23 16:54:01;;;;;;;5.78;4.57;;;;;;;;;;5048938;28;20197;-85
2022/01/23 16:56:28;;;;;;;4.07;3.35;;;;;;;;;;5055593;28;20282;-85
2022/01/23 16:58:56;;;;;;;4.43;3.80;;;;;;;;;;5053920;28;20291;-85
2022/01/23 17:01:24;;;;;;;6.22;4.47;;;;;;;;;;5046225;28;20286;-85
2022/01/23 17:03:51;;;;;;;4.75;3.50;;;;;;;;;;5056993;28;20234;-85
2022/01/23 17:06:18;;;;;;;9.23;4.15;;;;;;;;;;5053028;28;20235;-85
2022/01/23 17:08:45;;;;;;;4.45;3.90;;;;;;;;;;5057221;28;20232;-86
2022/01/23 17:11:12;;;;;;;3.08;2.78;;;;;;;;;;5054864;28;20206;-85
2022/01/23 17:13:43;;;;;;;6.05;4.40;;;;;;;;;;5058799;28;21163;-86